createdAt,value
2022-12-01T00:01:20.443Z,11.15
2022-12-01T00:03:48.093Z,16.65
2022-12-01T00:06:18.220Z,13.32
2022-12-01T00:09:05.985Z,11.25
2022-12-01T00:11:34.706Z,15.50
2022-12-01T00:14:01.696Z,11.15
2022-12-01T00:16:29.368Z,11.13
2022-12-01T00:18:57.053Z,12.48
2022-12-01T00:21:25.995Z,11.13
2022-12-01T00:23:55.174Z,14.07
2022-12-01T00:26:22.854Z,16.77
2022-12-01T00:28:51.961Z,15.25
2022-12-01T00:31:20.193Z,12.00
2022-12-01T00:33:47.402Z,12.45
2022-12-01T00:36:14.577Z,19.20
2022-12-01T00:38:41.730Z,11.05
2022-12-01T00:41:09.363Z,9.73
2022-12-01T00:43:36.883Z,12.88
2022-12-01T00:46:04.308Z,12.00
2022-12-01T00:48:31.542Z,11.55
2022-12-01T00:50:58.607Z,9.20
2022-12-01T00:53:25.828Z,10.95
2022-12-01T00:55:56.231Z,6.38
2022-12-01T00:58:24.412Z,7.72
2022-12-01T01:01:02.002Z,13.07
2022-12-01T01:03:30.380Z,9.35
2022-12-01T01:06:03.482Z,14.30
2022-12-01T01:08:30.580Z,10.45
2022-12-01T01:10:59.754Z,12.13
2022-12-01T01:13:26.707Z,6.78
2022-12-01T01:16:02.026Z,7.78
2022-12-01T01:18:29.715Z,9.45
2022-12-01T01:21:12.608Z,10.48
2022-12-01T01:26:12.919Z,8.45
2022-12-01T01:28:41.762Z,13.27
2022-12-01T01:31:11.596Z,11.88
2022-12-01T01:33:38.837Z,13.15
2022-12-01T01:36:06.326Z,16.15
2022-12-01T01:38:33.927Z,13.73
2022-12-01T01:41:01.094Z,17.10
2022-12-01T01:43:50.654Z,19.52
2022-12-01T01:46:18.007Z,13.27
2022-12-01T01:49:04.888Z,12.65
2022-12-01T01:51:43.752Z,12.70
2022-12-01T01:54:25.412Z,13.23
2022-12-01T01:56:53.751Z,8.48
2022-12-01T01:59:25.255Z,12.07
2022-12-01T02:02:06.764Z,8.27
2022-12-01T02:04:41.071Z,7.68
2022-12-01T02:07:10.314Z,9.35
2022-12-01T02:09:37.383Z,11.13
2022-12-01T02:12:25.225Z,8.90
2022-12-01T02:15:29.132Z,10.65
2022-12-01T02:18:07.884Z,10.98
2022-12-01T02:20:57.459Z,7.65
2022-12-01T02:23:55.366Z,8.15
2022-12-01T02:26:46.705Z,8.48
2022-12-01T02:29:49.104Z,7.72
2022-12-01T02:32:23.448Z,7.53
2022-12-01T02:35:03.979Z,7.22
2022-12-01T02:38:10.232Z,10.30
2022-12-01T02:40:47.428Z,7.03
2022-12-01T02:43:28.018Z,8.52
2022-12-01T02:46:05.977Z,11.55
2022-12-01T02:48:35.471Z,7.60
2022-12-01T02:51:13.388Z,9.45
2022-12-01T02:53:41.026Z,11.82
2022-12-01T02:56:12.537Z,6.85
2022-12-01T02:58:39.723Z,9.38
2022-12-01T03:01:42.560Z,7.35
2022-12-01T03:07:10.390Z,7.05
2022-12-01T03:09:55.578Z,6.80
2022-12-01T03:13:21.306Z,6.68
2022-12-01T03:16:00.872Z,7.38
2022-12-01T03:18:40.246Z,12.55
2022-12-01T03:21:22.475Z,12.27
2022-12-01T03:23:56.027Z,10.07
2022-12-01T03:26:25.334Z,10.02
2022-12-01T03:28:59.168Z,11.27
2022-12-01T03:31:32.517Z,7.63
2022-12-01T03:34:05.451Z,7.72
2022-12-01T03:36:42.623Z,7.63
2022-12-01T03:39:15.279Z,7.95
2022-12-01T03:44:20.983Z,8.90
2022-12-01T03:46:54.425Z,5.82
2022-12-01T03:49:25.727Z,6.45
2022-12-01T03:51:58.879Z,7.03
2022-12-01T03:54:54.074Z,9.43
2022-12-01T03:57:33.152Z,9.32
2022-12-01T04:00:00.832Z,7.75
2022-12-01T04:02:29.329Z,14.95
2022-12-01T04:04:56.676Z,18.48
2022-12-01T04:07:24.125Z,12.43
2022-12-01T04:09:51.437Z,8.75
2022-12-01T04:12:31.272Z,9.15
2022-12-01T04:15:10.387Z,7.72
2022-12-01T04:17:38.101Z,15.70
2022-12-01T04:20:07.179Z,14.60
2022-12-01T04:22:34.714Z,13.25
2022-12-01T04:25:02.137Z,14.55
2022-12-01T04:27:29.435Z,15.32
2022-12-01T04:29:56.833Z,11.85
2022-12-01T04:32:24.419Z,7.65
2022-12-01T04:34:51.591Z,6.93
2022-12-01T04:37:19.370Z,6.05
2022-12-01T04:39:47.198Z,7.93
2022-12-01T04:42:15.120Z,4.85
2022-12-01T04:44:42.323Z,5.88
2022-12-01T04:47:09.525Z,7.18
2022-12-01T04:49:37.422Z,8.25
2022-12-01T04:52:05.494Z,10.68
2022-12-01T04:54:32.842Z,7.90
2022-12-01T04:57:00.357Z,8.63
2022-12-01T04:59:27.512Z,10.90
2022-12-01T05:01:54.821Z,8.48
2022-12-01T05:04:22.158Z,10.48
2022-12-01T05:06:49.690Z,7.28
2022-12-01T05:09:17.994Z,8.40
2022-12-01T05:11:46.089Z,5.82
2022-12-01T05:14:13.732Z,5.95
2022-12-01T05:16:41.479Z,6.07
2022-12-01T05:19:27.994Z,5.75
2022-12-01T05:21:56.007Z,4.85
2022-12-01T05:24:23.776Z,10.15
2022-12-01T05:26:51.814Z,5.28
2022-12-01T05:29:19.943Z,9.48
2022-12-01T05:31:47.461Z,10.48
2022-12-01T05:34:16.196Z,14.82
2022-12-01T05:36:43.741Z,18.92
2022-12-01T05:39:11.177Z,15.15
2022-12-01T05:41:38.987Z,16.00
2022-12-01T05:44:07.812Z,8.68
2022-12-01T05:46:36.140Z,6.47
2022-12-01T05:49:03.906Z,8.05
2022-12-01T05:51:31.354Z,6.55
2022-12-01T05:54:02.876Z,4.53
2022-12-01T05:56:30.751Z,10.27
2022-12-01T05:58:58.071Z,11.25
2022-12-01T06:01:25.907Z,13.77
2022-12-01T06:03:55.128Z,9.68
2022-12-01T06:06:22.772Z,15.18
2022-12-01T06:08:49.986Z,15.70
2022-12-01T06:11:17.593Z,13.82
2022-12-01T06:13:45.224Z,16.77
2022-12-01T06:16:13.016Z,13.27
2022-12-01T06:18:40.791Z,13.48
2022-12-01T06:21:08.855Z,13.52
2022-12-01T06:23:36.449Z,11.52
2022-12-01T06:26:03.840Z,13.60
2022-12-01T06:28:31.153Z,12.27
2022-12-01T06:31:03.117Z,13.40
2022-12-01T06:33:32.094Z,15.48
2022-12-01T06:36:01.104Z,15.68
2022-12-01T06:38:34.887Z,10.35
2022-12-01T06:41:04.806Z,13.25
2022-12-01T06:43:36.819Z,25.88
2022-12-01T06:46:06.180Z,24.45
2022-12-01T06:48:35.805Z,20.00
2022-12-01T06:51:05.035Z,15.25
2022-12-01T06:53:33.450Z,14.95
2022-12-01T09:00:13.373Z,18.85
2022-12-01T09:02:39.580Z,16.40
2022-12-01T09:05:05.919Z,11.25
2022-12-01T09:08:55.203Z,9.80
2022-12-01T09:11:23.209Z,10.43
2022-12-01T09:13:54.586Z,15.07
2022-12-01T09:16:23.188Z,29.45
2022-12-01T09:18:50.765Z,26.02
2022-12-01T09:21:20.088Z,19.35
2022-12-01T09:23:48.458Z,16.45
2022-12-01T09:26:19.198Z,14.25
2022-12-01T09:28:49.283Z,12.13
2022-12-01T09:31:18.723Z,13.82
2022-12-01T09:33:46.973Z,12.02
2022-12-01T09:36:14.459Z,10.32
2022-12-01T09:38:41.884Z,10.45
2022-12-01T09:41:18.099Z,10.27
2022-12-01T09:43:58.957Z,10.98
2022-12-01T09:46:37.341Z,10.68
2022-12-01T09:49:09.212Z,9.98
2022-12-01T09:51:38.201Z,11.32
2022-12-01T09:54:09.620Z,10.10
2022-12-01T09:56:45.246Z,9.65
2022-12-01T09:59:22.723Z,11.63
2022-12-01T10:02:00.463Z,10.55
2022-12-01T10:04:43.612Z,12.73
2022-12-01T13:12:00.982Z,3.28
2022-12-01T13:14:44.954Z,9.80
2022-12-01T13:17:18.464Z,7.88
2022-12-01T13:19:49.325Z,16.45
2022-12-01T13:22:20.037Z,16.80
2022-12-01T13:24:48.360Z,19.63
2022-12-01T13:27:27.690Z,18.83
2022-12-01T13:29:57.805Z,21.83
2022-12-01T13:32:41.766Z,20.83
2022-12-01T13:35:38.156Z,23.73
2022-12-01T13:38:25.731Z,17.25
2022-12-01T13:41:14.075Z,44.83
2022-12-01T13:44:05.262Z,25.60
2022-12-01T13:46:51.836Z,18.27
2022-12-01T13:49:45.481Z,21.00
2022-12-01T13:52:23.498Z,23.75
2022-12-01T13:55:02.235Z,29.95
2022-12-01T13:57:33.845Z,23.58
2022-12-01T14:00:04.118Z,26.50
2022-12-01T14:02:40.234Z,20.42
2022-12-01T14:05:25.314Z,14.40
2022-12-01T14:07:55.782Z,16.15
2022-12-01T14:10:33.779Z,12.57
2022-12-01T14:13:06.601Z,15.13
2022-12-01T14:15:47.396Z,11.77
2022-12-01T14:18:33.435Z,11.43
2022-12-01T14:21:05.168Z,9.82
2022-12-01T14:23:36.744Z,13.07
2022-12-01T14:26:23.722Z,15.32
2022-12-01T14:29:00.987Z,12.70
2022-12-01T14:31:35.251Z,12.15
2022-12-01T14:34:18.798Z,13.55
2022-12-01T14:36:59.023Z,14.20
2022-12-01T14:39:35.966Z,22.33
2022-12-01T14:42:13.288Z,17.85
2022-12-01T14:44:49.071Z,18.88
2022-12-01T14:47:34.471Z,15.95
2022-12-01T14:50:13.455Z,34.78
2022-12-01T14:52:46.563Z,30.38
2022-12-01T14:55:25.648Z,27.02
2022-12-01T14:58:05.249Z,23.73
2022-12-01T15:00:37.582Z,20.35
2022-12-01T15:03:13.690Z,26.05
2022-12-01T15:05:44.077Z,19.38
2022-12-01T15:08:45.819Z,18.75
2022-12-01T15:11:29.313Z,14.35
2022-12-01T15:13:57.907Z,11.52
2022-12-01T15:16:32.701Z,11.75
2022-12-01T15:19:00.198Z,15.35
2022-12-01T15:21:32.116Z,9.95
2022-12-01T15:24:02.651Z,11.77
2022-12-01T15:26:46.779Z,14.88
2022-12-01T15:29:16.042Z,17.48
2022-12-01T15:31:46.830Z,16.17
2022-12-01T15:34:17.548Z,14.85
2022-12-01T15:36:45.666Z,21.90
2022-12-01T15:39:29.925Z,14.50
2022-12-01T15:41:57.701Z,23.55
2022-12-01T15:44:35.272Z,33.83
2022-12-01T15:47:40.174Z,29.05
2022-12-01T15:50:07.807Z,22.50
2022-12-01T15:52:45.133Z,21.08
2022-12-01T15:55:25.701Z,16.42
2022-12-01T15:57:53.162Z,18.42
2022-12-01T16:00:22.522Z,9.73
2022-12-01T16:02:52.943Z,13.82
2022-12-01T16:05:25.248Z,17.73
2022-12-01T16:10:40.334Z,17.75
2022-12-01T16:13:40.600Z,13.93
2022-12-01T16:16:43.435Z,12.63
2022-12-01T16:19:10.847Z,16.23
2022-12-01T16:22:11.024Z,14.48
2022-12-01T16:24:47.246Z,19.27
2022-12-01T16:27:28.115Z,19.08
2022-12-01T16:30:06.553Z,17.10
2022-12-01T16:32:34.025Z,19.48
2022-12-01T16:35:02.047Z,24.02
2022-12-01T16:37:29.938Z,31.77
2022-12-01T16:39:58.636Z,35.05
2022-12-01T16:42:25.839Z,37.42
2022-12-01T16:44:53.519Z,22.80
2022-12-01T16:47:25.344Z,20.10
2022-12-01T16:49:53.516Z,18.33
2022-12-01T16:52:44.331Z,16.70
2022-12-01T16:55:23.957Z,12.82
2022-12-01T16:57:51.906Z,14.38
2022-12-01T17:00:19.638Z,11.82
2022-12-01T17:02:46.854Z,14.73
2022-12-01T17:05:14.207Z,24.88
2022-12-01T17:07:42.235Z,23.95
2022-12-01T17:10:10.417Z,16.42
2022-12-01T17:12:37.764Z,25.77
2022-12-01T17:15:05.642Z,20.83
2022-12-01T17:17:33.066Z,17.95
2022-12-01T17:20:00.358Z,15.00
2022-12-01T17:22:28.022Z,14.05
2022-12-01T17:24:55.924Z,15.07
2022-12-01T17:27:24.972Z,16.50
2022-12-01T17:29:52.920Z,14.00
2022-12-01T17:32:20.205Z,23.38
2022-12-01T17:34:48.081Z,33.72
2022-12-01T17:37:20.687Z,34.67
2022-12-01T17:39:48.721Z,38.85
2022-12-01T17:42:16.979Z,40.25
2022-12-01T17:44:44.408Z,23.02
2022-12-01T17:47:12.142Z,19.65
2022-12-01T17:49:39.532Z,17.35
2022-12-01T17:52:07.373Z,23.38
2022-12-01T17:54:34.520Z,14.93
2022-12-01T17:57:01.707Z,15.30
2022-12-01T22:25:19.721Z,4.22
2022-12-01T22:27:45.858Z,3.65
2022-12-01T22:30:20.632Z,4.07
2022-12-01T22:33:01.091Z,9.00
2022-12-01T22:35:49.474Z,10.55
2022-12-01T22:38:35.844Z,9.10
2022-12-01T22:41:07.041Z,6.47
2022-12-01T22:43:56.559Z,9.25
2022-12-01T22:46:34.351Z,7.68
2022-12-01T22:49:10.633Z,9.52
2022-12-01T22:51:43.184Z,12.77
2022-12-01T22:56:40.434Z,7.07
2022-12-01T22:59:22.523Z,6.90
2022-12-01T23:01:58.537Z,4.63
2022-12-01T23:04:26.705Z,8.10
2022-12-01T23:07:03.806Z,9.00
2022-12-01T23:10:00.091Z,7.55
2022-12-01T23:12:30.221Z,10.00
2022-12-01T23:15:16.874Z,7.25
2022-12-01T23:17:43.889Z,5.90
2022-12-01T23:20:11.007Z,7.43
2022-12-01T23:22:38.758Z,8.75
2022-12-01T23:25:14.610Z,11.15
2022-12-01T23:27:42.809Z,6.75
2022-12-01T23:30:11.574Z,9.18
2022-12-01T23:32:39.115Z,9.75
2022-12-01T23:35:10.115Z,7.15
2022-12-01T23:37:39.822Z,13.75
2022-12-01T23:40:18.657Z,15.18
2022-12-01T23:42:45.950Z,14.90
2022-12-01T23:45:25.567Z,16.05
2022-12-01T23:47:54.587Z,15.77
2022-12-01T23:50:30.260Z,10.88
2022-12-01T23:52:57.626Z,10.45
2022-12-01T23:55:29.920Z,9.57
2022-12-01T23:57:58.737Z,11.15
